Stockton Metropolitan Airport
KSCK : rendu visible

Aérodrome :











RETROUVEZ-NOUS SUR...

 
LOGIN :

S'inscrire | Disclaimer

   EN    FR    IT 

 









Légende :    VFR   VFR Marginal   IFR   IFR Intensif   IFR Très Intensif
Visi : 
Plafond : 
>= 8 km
>= 3000ft
5 à 8 km
1000 à 3000 ft
1500m à 5 km
500 à 1000 ft
800 à 1500m
200 à 500 ft
< 800m
< 200 ft
Symboles :   Orages  Brouillard  Fortes neiges  Fortes précipitations  Vent > 20 kt






- Altitude de l'aérodrome : 33 ft


KSCK - Stockton Metropolitan

DERNIER METAR :
  • 290855Z AUTO 00000KT 4SM -RA BR BKN043 OVC050 11/09 A3014 RMK AO2 RAB06 SLP204 P0001 60001 T01060094 56005

METARs EXPIRÉS :
  • 290755Z AUTO 00000KT 9SM OVC049 11/09 A3014 RMK AO2 SLP205 T01110094 401560072
  • 290655Z AUTO 00000KT 9SM FEW040 OVC050 11/09 A3014 RMK AO2 RAE40 SLP206 P0000 T01110094

TAF KSCK
Valide du 29 à 06h jusqu'au 30 à 06h UTC


290542Z 2906/3006 VRB05KT P6SM -SHRA OVC040
FM291600 VRB03KT 6SM -SHRA BR OVC025
FM300100 VRB03KT P6SM BKN050



MET'MAP, la Météo Aéronautique d'un coup d'oeil ! - Copyright ORBIFLY Décembre 2007 - Disclaimer

ORBIFLY MET'MAP TEAM :

Programmation & Développement : Alexandra Zaïnal
Sur une idée originale de : Baudouin d'Aumeries
Assistance à la programmation : Marc-Olivier Méhu
Soutien technique & logistique : Manuel Goepfert

Contact : metmap@orbifly.com




SOURCES & CREDITS :

   NOAA       Earth
Advisory